createdAt,value
2023-02-19T00:01:16.017Z,18.40
2023-02-19T00:04:19.675Z,18.40
2023-02-19T00:07:21.698Z,18.40
2023-02-19T00:10:23.713Z,18.38
2023-02-19T00:13:25.747Z,18.38
2023-02-19T00:16:35.988Z,18.38
2023-02-19T00:19:38.078Z,18.35
2023-02-19T00:22:40.182Z,18.36
2023-02-19T00:25:42.206Z,18.35
2023-02-19T00:28:44.506Z,18.35
2023-02-19T00:31:47.089Z,18.34
2023-02-19T00:34:49.230Z,18.34
2023-02-19T00:37:51.325Z,18.32
2023-02-19T00:40:53.429Z,18.29
2023-02-19T00:44:00.963Z,18.29
2023-02-19T00:47:03.102Z,18.29
2023-02-19T00:50:05.336Z,18.28
2023-02-19T00:53:07.406Z,18.28
2023-02-19T00:56:09.860Z,18.27
2023-02-19T00:59:11.975Z,18.27
2023-02-19T01:02:14.229Z,18.26
2023-02-19T01:05:16.330Z,18.25
2023-02-19T01:08:18.537Z,18.25
2023-02-19T01:11:20.589Z,18.23
2023-02-19T01:14:22.657Z,18.24
2023-02-19T01:17:24.713Z,18.23
2023-02-19T01:20:27.259Z,18.22
2023-02-19T01:23:29.328Z,18.22
2023-02-19T01:26:33.307Z,18.20
2023-02-19T01:29:35.454Z,18.20
2023-02-19T01:32:37.620Z,18.20
2023-02-19T01:35:40.305Z,18.18
2023-02-19T01:38:42.631Z,18.18
2023-02-19T01:41:44.709Z,18.17
2023-02-19T01:44:46.750Z,18.17
2023-02-19T01:47:54.651Z,18.14
2023-02-19T01:51:09.220Z,18.14
2023-02-19T01:54:13.482Z,18.14
2023-02-19T01:57:26.470Z,18.13
2023-02-19T02:00:28.747Z,18.12
2023-02-19T02:03:31.324Z,18.11
2023-02-19T02:06:44.700Z,18.11
2023-02-19T02:10:05.528Z,18.11
2023-02-19T02:13:07.583Z,18.10
2023-02-19T02:16:34.117Z,18.10
2023-02-19T02:20:00.637Z,18.08
2023-02-19T02:23:14.410Z,18.07
2023-02-19T02:26:24.763Z,18.07
2023-02-19T02:29:26.792Z,18.06
2023-02-19T02:32:38.298Z,18.05
2023-02-19T02:35:48.156Z,18.05
2023-02-19T02:38:52.794Z,18.05
2023-02-19T02:42:18.115Z,18.03
2023-02-19T02:45:36.795Z,18.03
2023-02-19T02:49:03.400Z,18.02
2023-02-19T02:52:25.653Z,17.99
2023-02-19T02:55:32.674Z,17.99
2023-02-19T02:58:35.653Z,18.00
2023-02-19T03:02:11.337Z,17.98
2023-02-19T03:05:39.531Z,17.98
2023-02-19T03:08:46.245Z,17.97
2023-02-19T03:12:11.150Z,17.96
2023-02-19T03:15:34.418Z,17.95
2023-02-19T03:18:59.361Z,17.93
2023-02-19T03:22:19.909Z,17.93
2023-02-19T03:25:48.750Z,17.93
2023-02-19T03:29:11.460Z,17.92
2023-02-19T03:32:21.189Z,17.91
2023-02-19T03:35:31.464Z,17.90
2023-02-19T03:38:47.993Z,17.91
2023-02-19T03:42:01.691Z,17.89
2023-02-19T03:45:19.478Z,17.88
2023-02-19T03:48:31.776Z,17.89
2023-02-19T03:51:53.863Z,17.88
2023-02-19T03:55:25.823Z,17.88
2023-02-19T03:58:40.089Z,17.85
2023-02-19T04:01:55.267Z,17.83
2023-02-19T04:05:25.892Z,17.83
2023-02-19T04:08:30.314Z,17.84
2023-02-19T04:11:33.296Z,17.82
2023-02-19T04:15:00.772Z,17.83
2023-02-19T04:18:09.123Z,17.81
2023-02-19T04:21:11.677Z,17.80
2023-02-19T04:24:26.326Z,17.80
2023-02-19T04:27:28.611Z,17.79
2023-02-19T04:30:30.757Z,17.78
2023-02-19T04:33:32.884Z,17.77
2023-02-19T04:36:34.998Z,17.76
2023-02-19T04:39:37.056Z,17.76
2023-02-19T04:42:39.248Z,17.75
2023-02-19T04:45:41.287Z,17.74
2023-02-19T04:48:43.417Z,17.74
2023-02-19T04:51:45.515Z,17.74
2023-02-19T04:54:47.589Z,17.73
2023-02-19T04:57:49.790Z,17.73
2023-02-19T05:00:53.082Z,17.72
2023-02-19T05:03:55.160Z,17.72
2023-02-19T05:06:57.226Z,17.69
2023-02-19T05:09:59.813Z,17.69
2023-02-19T05:13:01.883Z,17.68
2023-02-19T05:16:09.940Z,17.68
2023-02-19T05:19:12.551Z,17.68
2023-02-19T05:22:14.608Z,17.68
2023-02-19T05:25:16.903Z,17.65
2023-02-19T05:28:19.239Z,17.65
2023-02-19T05:31:21.528Z,17.64
2023-02-19T05:34:23.778Z,17.64
2023-02-19T05:37:25.828Z,17.64
2023-02-19T05:40:27.945Z,17.63
2023-02-19T05:43:30.061Z,17.63
2023-02-19T05:46:32.423Z,17.62
2023-02-19T05:49:34.572Z,17.62
2023-02-19T05:52:36.676Z,17.62
2023-02-19T05:55:38.730Z,17.60
2023-02-19T05:58:40.775Z,17.62
2023-02-19T06:01:43.288Z,17.65
2023-02-19T06:04:45.360Z,17.68
2023-02-19T06:07:50.313Z,17.70
2023-02-19T06:10:52.398Z,17.75
2023-02-19T06:13:54.495Z,17.81
2023-02-19T06:16:56.559Z,17.91
2023-02-19T06:19:58.741Z,17.96
2023-02-19T06:23:00.871Z,17.97
2023-02-19T06:26:07.849Z,18.03
2023-02-19T06:29:09.937Z,18.08
2023-02-19T06:32:12.150Z,18.09
2023-02-19T06:35:14.389Z,18.11
2023-02-19T06:38:16.673Z,18.13
2023-02-19T06:41:18.885Z,18.19
2023-02-19T06:44:21.249Z,18.24
2023-02-19T06:47:25.444Z,18.26
2023-02-19T06:50:27.591Z,18.27
2023-02-19T06:53:29.889Z,18.26
2023-02-19T06:56:35.908Z,18.27
2023-02-19T06:59:37.995Z,18.28
2023-02-19T07:02:40.063Z,18.28
2023-02-19T07:05:43.776Z,18.32
2023-02-19T07:08:46.023Z,18.39
2023-02-19T07:11:48.259Z,18.41
2023-02-19T07:14:50.433Z,18.41
2023-02-19T07:17:52.506Z,18.43
2023-02-19T07:20:54.763Z,18.44
2023-02-19T07:23:57.593Z,18.46
2023-02-19T07:26:59.688Z,18.49
2023-02-19T07:30:02.571Z,18.49
2023-02-19T07:33:04.701Z,18.52
2023-02-19T07:36:09.951Z,18.58
2023-02-19T07:39:13.673Z,18.63
2023-02-19T07:42:15.918Z,18.65
2023-02-19T07:45:18.070Z,18.64
2023-02-19T07:48:20.581Z,18.61
2023-02-19T07:51:22.771Z,18.63
2023-02-19T07:54:24.903Z,18.63
2023-02-19T07:57:29.489Z,18.66
2023-02-19T08:00:31.509Z,18.68
2023-02-19T08:03:33.905Z,18.74
2023-02-19T08:06:36.052Z,18.79
2023-02-19T08:09:38.156Z,18.83
2023-02-19T08:12:58.994Z,18.85
2023-02-19T08:16:16.947Z,18.92
2023-02-19T08:19:22.691Z,18.98
2023-02-19T08:22:24.802Z,19.01
2023-02-19T08:25:27.084Z,19.05
2023-02-19T08:28:30.421Z,19.12
2023-02-19T08:31:36.040Z,19.20
2023-02-19T08:34:38.222Z,19.31
2023-02-19T08:37:40.286Z,19.36
2023-02-19T08:40:43.054Z,19.37
2023-02-19T08:43:45.202Z,19.37
2023-02-19T08:46:47.426Z,19.36
2023-02-19T08:49:49.480Z,19.36
2023-02-19T08:52:51.637Z,19.39
2023-02-19T08:55:54.042Z,19.47
2023-02-19T08:58:56.088Z,19.53
2023-02-19T09:02:01.302Z,19.47
2023-02-19T09:05:03.581Z,19.42
2023-02-19T09:08:05.835Z,19.46
2023-02-19T09:11:07.948Z,19.48
2023-02-19T09:14:10.220Z,19.50
2023-02-19T09:17:12.432Z,19.46
2023-02-19T09:20:14.559Z,19.50
2023-02-19T09:23:16.669Z,19.56
2023-02-19T09:26:18.770Z,19.63
2023-02-19T09:29:24.029Z,19.61
2023-02-19T09:32:26.265Z,19.60
2023-02-19T09:35:28.367Z,19.60
2023-02-19T09:38:31.072Z,19.60
2023-02-19T09:41:39.061Z,19.67
2023-02-19T09:44:43.768Z,19.62
2023-02-19T09:47:46.039Z,19.67
2023-02-19T09:50:49.794Z,19.77
2023-02-19T09:53:53.776Z,19.80
2023-02-19T09:56:57.337Z,19.81
2023-02-19T10:00:11.835Z,19.80
2023-02-19T10:03:30.885Z,19.80
2023-02-19T10:06:34.104Z,19.80
2023-02-19T10:09:37.609Z,19.80
2023-02-19T10:12:43.208Z,19.82
2023-02-19T10:16:15.234Z,19.85
2023-02-19T10:19:17.790Z,19.80
2023-02-19T10:22:20.641Z,19.80
2023-02-19T10:25:22.767Z,19.79
2023-02-19T10:28:31.695Z,19.77
2023-02-19T10:31:36.957Z,19.75
2023-02-19T10:34:39.085Z,19.75
2023-02-19T10:37:50.495Z,19.85
2023-02-19T10:41:00.961Z,19.88
2023-02-19T10:44:22.116Z,19.88
2023-02-19T10:47:26.967Z,19.89
2023-02-19T10:50:32.652Z,19.88
2023-02-19T10:53:50.320Z,19.88
2023-02-19T10:56:52.455Z,19.89
2023-02-19T10:59:58.669Z,19.92
2023-02-19T11:03:21.233Z,19.94
2023-02-19T11:06:27.485Z,19.97
2023-02-19T11:09:38.607Z,20.02
2023-02-19T11:12:40.741Z,20.03
2023-02-19T11:15:43.821Z,20.04
2023-02-19T11:18:57.243Z,20.04
2023-02-19T11:22:00.816Z,20.06
2023-02-19T11:25:18.440Z,20.04
2023-02-19T11:28:28.942Z,20.01
2023-02-19T11:31:35.920Z,20.04
2023-02-19T11:34:39.151Z,20.00
2023-02-19T11:37:54.861Z,19.99
2023-02-19T11:41:06.419Z,19.96
2023-02-19T11:44:30.324Z,19.86
2023-02-19T11:47:48.678Z,19.81
2023-02-19T11:50:59.885Z,19.77
2023-02-19T11:54:43.443Z,19.74
2023-02-19T11:57:47.517Z,19.71
2023-02-19T12:01:03.476Z,19.71
2023-02-19T12:04:17.469Z,19.70
2023-02-19T12:08:01.485Z,19.70
2023-02-19T12:11:28.483Z,19.69
2023-02-19T12:14:47.867Z,19.68
2023-02-19T12:18:18.183Z,19.66
2023-02-19T12:21:38.846Z,19.66
2023-02-19T12:24:57.077Z,19.65
2023-02-19T12:28:03.949Z,19.62
2023-02-19T12:31:27.919Z,19.61
2023-02-19T12:34:51.306Z,19.59
2023-02-19T12:38:01.253Z,19.59
2023-02-19T12:41:25.549Z,19.59
2023-02-19T12:44:48.857Z,19.59
2023-02-19T12:48:18.593Z,19.57
2023-02-19T12:51:48.123Z,19.58
2023-02-19T12:54:55.804Z,19.57
2023-02-19T12:58:02.144Z,19.56
2023-02-19T13:01:05.420Z,19.55
2023-02-19T13:04:32.079Z,19.57
2023-02-19T13:07:44.491Z,19.59
2023-02-19T13:10:59.208Z,19.59
2023-02-19T13:14:11.917Z,19.59
2023-02-19T13:17:32.107Z,19.59
2023-02-19T13:20:42.768Z,19.57
2023-02-19T13:23:59.819Z,19.56
2023-02-19T13:27:33.650Z,19.54
2023-02-19T13:31:00.782Z,19.53
2023-02-19T13:34:17.535Z,19.53
2023-02-19T13:37:20.225Z,19.52
2023-02-19T13:40:33.110Z,19.51
2023-02-19T13:43:38.836Z,19.48
2023-02-19T13:46:45.893Z,19.48
2023-02-19T13:49:50.892Z,19.45
2023-02-19T13:52:55.034Z,19.45
2023-02-19T13:55:57.319Z,19.43
2023-02-19T13:59:35.371Z,19.42
2023-02-19T14:02:37.851Z,19.41
2023-02-19T14:06:06.646Z,19.42
2023-02-19T14:09:34.211Z,19.40
2023-02-19T14:12:37.508Z,19.39
2023-02-19T14:15:44.267Z,19.39
2023-02-19T14:18:47.202Z,19.37
2023-02-19T14:21:49.397Z,19.36
2023-02-19T14:24:53.890Z,19.35
2023-02-19T14:28:06.110Z,19.32
2023-02-19T14:31:36.242Z,19.30
2023-02-19T14:34:39.203Z,19.30
2023-02-19T14:37:42.479Z,19.30
2023-02-19T14:40:47.446Z,19.28
2023-02-19T14:43:52.455Z,19.28
2023-02-19T14:47:06.860Z,19.26
2023-02-19T14:50:13.491Z,19.26
2023-02-19T14:53:16.456Z,19.24
2023-02-19T14:56:28.686Z,19.24
2023-02-19T14:59:31.227Z,19.24
2023-02-19T15:02:41.544Z,19.22
2023-02-19T15:05:45.195Z,19.21
2023-02-19T15:08:50.727Z,19.26
2023-02-19T15:11:54.785Z,19.30
2023-02-19T15:15:01.499Z,19.32
2023-02-19T15:18:05.399Z,19.38
2023-02-19T15:21:08.139Z,19.40
2023-02-19T15:24:12.115Z,19.48
2023-02-19T15:27:23.039Z,19.48
2023-02-19T15:30:30.853Z,19.44
2023-02-19T15:33:33.617Z,19.39
2023-02-19T15:36:35.851Z,19.31
2023-02-19T15:39:46.362Z,19.25
2023-02-19T15:42:48.462Z,19.21
2023-02-19T15:45:53.621Z,19.17
2023-02-19T15:49:07.923Z,19.17
2023-02-19T15:52:16.995Z,19.16
2023-02-19T15:55:26.083Z,19.16
2023-02-19T15:58:36.425Z,19.13
2023-02-19T16:01:39.780Z,19.12
2023-02-19T16:04:44.308Z,19.11
2023-02-19T16:07:46.452Z,19.11
2023-02-19T16:10:56.802Z,19.09
2023-02-19T16:14:28.018Z,19.07
2023-02-19T16:17:30.145Z,19.06
2023-02-19T16:20:35.234Z,19.07
2023-02-19T16:23:45.663Z,19.06
2023-02-19T16:26:47.905Z,19.05
2023-02-19T16:29:52.215Z,19.03
2023-02-19T16:33:40.489Z,19.03
2023-02-19T16:36:43.495Z,19.02
2023-02-19T16:39:45.935Z,19.01
2023-02-19T16:42:51.180Z,19.00
2023-02-19T16:45:53.298Z,18.99
2023-02-19T16:48:55.378Z,18.98
2023-02-19T16:52:01.347Z,18.99
2023-02-19T16:55:12.297Z,18.96
2023-02-19T16:58:14.379Z,18.96
2023-02-19T17:01:16.908Z,18.96
2023-02-19T17:04:19.232Z,18.97
2023-02-19T17:07:22.264Z,18.95
2023-02-19T17:10:26.788Z,18.94
2023-02-19T17:13:29.597Z,18.93
2023-02-19T17:16:40.252Z,18.93
2023-02-19T17:19:42.601Z,18.92
2023-02-19T17:22:45.376Z,18.89
2023-02-19T17:25:47.408Z,18.91
2023-02-19T17:28:49.745Z,18.89
2023-02-19T17:31:52.042Z,18.88
2023-02-19T17:34:54.177Z,18.87
2023-02-19T17:37:56.334Z,18.87
2023-02-19T17:40:58.342Z,18.86
2023-02-19T17:44:00.412Z,18.85
2023-02-19T17:47:02.608Z,18.86
2023-02-19T17:50:06.828Z,18.85
2023-02-19T17:53:09.535Z,18.83
2023-02-19T17:56:16.711Z,18.83
2023-02-19T17:59:18.730Z,18.85
2023-02-19T18:02:21.072Z,18.91
2023-02-19T18:05:23.800Z,18.88
2023-02-19T18:08:25.831Z,18.49
2023-02-19T18:11:28.039Z,18.56
2023-02-19T18:14:31.112Z,18.67
2023-02-19T18:17:33.525Z,18.72
2023-02-19T18:20:35.693Z,18.76
2023-02-19T18:23:38.099Z,18.77
2023-02-19T18:26:41.124Z,18.81
2023-02-19T18:29:43.437Z,18.80
2023-02-19T18:32:49.576Z,18.78
2023-02-19T18:35:51.664Z,18.77
2023-02-19T18:38:53.792Z,18.77
2023-02-19T18:41:57.798Z,18.77
2023-02-19T18:44:59.973Z,18.77
2023-02-19T18:48:02.058Z,18.77
2023-02-19T18:51:04.361Z,18.76
2023-02-19T18:54:07.804Z,18.77
2023-02-19T18:57:09.942Z,18.76
2023-02-19T19:00:20.526Z,18.74
2023-02-19T19:03:22.617Z,18.74
2023-02-19T19:06:24.687Z,18.71
2023-02-19T19:09:26.789Z,18.73
2023-02-19T19:12:28.998Z,18.71
2023-02-19T19:15:31.179Z,18.71
2023-02-19T19:18:38.052Z,18.71
2023-02-19T19:21:40.144Z,18.70
2023-02-19T19:24:43.185Z,18.71
2023-02-19T19:27:45.905Z,18.69
2023-02-19T19:30:48.030Z,18.69
2023-02-19T19:33:50.239Z,18.69
2023-02-19T19:36:52.497Z,18.69
2023-02-19T19:39:54.639Z,18.68
2023-02-19T19:42:56.740Z,18.69
2023-02-19T19:45:59.356Z,18.67
2023-02-19T19:49:01.470Z,18.65
2023-02-19T19:52:03.635Z,18.66
2023-02-19T19:55:07.293Z,18.66
2023-02-19T19:58:09.432Z,18.65
2023-02-19T20:01:11.887Z,18.65
2023-02-19T20:04:14.267Z,18.66
2023-02-19T20:07:16.542Z,18.66
2023-02-19T20:10:19.927Z,18.65
2023-02-19T20:13:24.439Z,18.63
2023-02-19T20:16:28.307Z,18.65
2023-02-19T20:19:30.488Z,18.63
2023-02-19T20:22:32.622Z,18.63
2023-02-19T20:25:34.773Z,18.62
2023-02-19T20:28:38.397Z,18.63
2023-02-19T20:31:47.257Z,18.59
2023-02-19T20:34:49.549Z,18.59
2023-02-19T20:37:52.215Z,18.59
2023-02-19T20:40:54.661Z,18.59
2023-02-19T20:43:56.844Z,18.58
2023-02-19T20:46:59.671Z,18.58
2023-02-19T20:50:02.149Z,18.57
2023-02-19T20:53:04.325Z,18.56
2023-02-19T20:56:06.718Z,18.56
2023-02-19T20:59:09.069Z,18.55
2023-02-19T21:02:20.613Z,18.55
2023-02-19T21:05:22.801Z,18.56
2023-02-19T21:08:24.981Z,18.57
2023-02-19T21:11:27.827Z,18.56
2023-02-19T21:14:29.936Z,18.61
2023-02-19T21:17:32.295Z,18.61
2023-02-19T21:20:34.880Z,18.61
2023-02-19T21:23:37.055Z,18.61
2023-02-19T21:26:40.601Z,18.62
2023-02-19T21:29:42.677Z,18.62
2023-02-19T21:32:44.776Z,18.63
2023-02-19T21:35:46.881Z,18.63
2023-02-19T21:38:49.869Z,18.61
2023-02-19T21:41:52.083Z,18.59
2023-02-19T21:44:54.271Z,18.59
2023-02-19T21:47:56.637Z,18.58
2023-02-19T21:50:58.696Z,18.55
2023-02-19T21:54:01.385Z,18.54
2023-02-19T21:57:04.300Z,18.53
2023-02-19T22:00:08.421Z,18.52
2023-02-19T22:03:16.158Z,18.52
2023-02-19T22:06:21.311Z,18.51
2023-02-19T22:09:23.547Z,18.50
2023-02-19T22:12:25.572Z,18.49
2023-02-19T22:15:27.601Z,18.49
2023-02-19T22:18:29.896Z,18.48
2023-02-19T22:21:32.590Z,18.46
2023-02-19T22:24:34.725Z,18.46
2023-02-19T22:27:37.102Z,18.43
2023-02-19T22:30:40.053Z,18.44
2023-02-19T22:33:42.274Z,18.42
2023-02-19T22:36:44.719Z,18.41
2023-02-19T22:39:46.773Z,18.41
2023-02-19T22:42:48.952Z,18.41
2023-02-19T22:45:51.021Z,18.38
2023-02-19T22:48:53.213Z,18.38
2023-02-19T22:51:58.774Z,18.37
2023-02-19T22:55:00.911Z,18.36
2023-02-19T22:58:02.996Z,18.34
2023-02-19T23:01:05.204Z,18.33
2023-02-19T23:04:07.433Z,18.32
2023-02-19T23:07:10.104Z,18.33
2023-02-19T23:10:13.527Z,18.30
2023-02-19T23:13:15.730Z,18.32
2023-02-19T23:16:18.236Z,18.29
2023-02-19T23:19:20.546Z,18.28
2023-02-19T23:22:22.736Z,18.28
2023-02-19T23:25:24.829Z,18.26
2023-02-19T23:28:26.987Z,18.25
2023-02-19T23:31:29.129Z,18.24
2023-02-19T23:34:31.250Z,18.23
2023-02-19T23:37:33.412Z,18.21
2023-02-19T23:40:35.838Z,18.20
2023-02-19T23:43:38.198Z,18.21
2023-02-19T23:46:40.295Z,18.20
2023-02-19T23:49:42.694Z,18.19
2023-02-19T23:52:44.786Z,18.18
2023-02-19T23:55:46.832Z,18.18
2023-02-19T23:58:48.905Z,18.15
